MBS weather

MBS International Airport
Saginaw, Michigan, United States

Public forecast

Using degrees Fahrenheit for public forecast. Weather courtesy of forecast.io.

METAR (pilot weather report)

Retrieved 2019/05/23 12:43 UTC (0 seconds ago):

KMBS 231243Z 23019G25KT 2SM -RA BR BKN015 BKN019 OVC027 19/18 A2983 RMK AO2 PK WND 23026/1229 RAE18B31 P0001 T01890183

TAF (pilot weather forecast)

Retrieved 2019/05/23 12:22 UTC (0 seconds ago):

TAF KMBS 231120Z 2312/2412 23012G22KT P6SM VCSH SCT015 OVC035 FM231400 24017G23KT P6SM VCSH BKN025 OVC080 FM231600 25018G26KT P6SM SCT080 BKN150 FM231800 26020G29KT P6SM SKC FM240000 28010KT P6SM SKC